sensor_id;sensor_type;location;lat;lon;timestamp;temperature;humidity
47813;DHT22;34221;45.296;9.516;2024-01-06T00:00:15;5.90;99.90
47813;DHT22;34221;45.296;9.516;2024-01-06T00:00:31;5.90;99.90
47813;DHT22;34221;45.296;9.516;2024-01-06T00:00:46;5.90;99.90
47813;DHT22;34221;45.296;9.516;2024-01-06T00:01:03;5.90;99.90
47813;DHT22;34221;45.296;9.516;2024-01-06T00:01:18;5.80;99.90
47813;DHT22;34221;45.296;9.516;2024-01-06T00:01:33;5.90;99.90
47813;DHT22;34221;45.296;9.516;2024-01-06T00:01:48;5.80;99.90
47813;DHT22;34221;45.296;9.516;2024-01-06T00:02:03;5.80;99.90
47813;DHT22;34221;45.296;9.516;2024-01-06T00:02:18;5.80;99.90
47813;DHT22;34221;45.296;9.516;2024-01-06T00:02:33;5.80;99.90
47813;DHT22;34221;45.296;9.516;2024-01-06T00:02:48;5.90;99.90
47813;DHT22;34221;45.296;9.516;2024-01-06T00:03:03;5.90;99.90
47813;DHT22;34221;45.296;9.516;2024-01-06T00:03:18;5.80;99.90
47813;DHT22;34221;45.296;9.516;2024-01-06T00:03:33;5.80;99.90
47813;DHT22;34221;45.296;9.516;2024-01-06T00:03:48;5.80;99.90
47813;DHT22;34221;45.296;9.516;2024-01-06T00:04:03;5.80;99.90
47813;DHT22;34221;45.296;9.516;2024-01-06T00:04:18;5.80;99.90
47813;DHT22;34221;45.296;9.516;2024-01-06T00:04:33;5.80;99.90
47813;DHT22;34221;45.296;9.516;2024-01-06T00:04:48;5.80;99.90
47813;DHT22;34221;45.296;9.516;2024-01-06T00:05:03;5.70;99.90
47813;DHT22;34221;45.296;9.516;2024-01-06T00:05:19;5.80;99.90
47813;DHT22;34221;45.296;9.516;2024-01-06T00:05:34;5.80;99.90
47813;DHT22;34221;45.296;9.516;2024-01-06T00:05:49;5.80;99.90
47813;DHT22;34221;45.296;9.516;2024-01-06T00:06:04;5.80;99.90
47813;DHT22;34221;45.296;9.516;2024-01-06T00:06:19;5.70;99.90
47813;DHT22;34221;45.296;9.516;2024-01-06T00:06:34;5.80;99.90
47813;DHT22;34221;45.296;9.516;2024-01-06T00:06:49;5.80;99.90
47813;DHT22;34221;45.296;9.516;2024-01-06T00:07:04;5.70;99.90
47813;DHT22;34221;45.296;9.516;2024-01-06T00:07:19;5.80;99.90
47813;DHT22;34221;45.296;9.516;2024-01-06T00:07:34;5.70;99.90
47813;DHT22;34221;45.296;9.516;2024-01-06T00:07:49;5.70;99.90
47813;DHT22;34221;45.296;9.516;2024-01-06T00:08:04;5.80;99.90
47813;DHT22;34221;45.296;9.516;2024-01-06T00:08:19;5.70;99.90
47813;DHT22;34221;45.296;9.516;2024-01-06T00:08:34;5.70;99.90
47813;DHT22;34221;45.296;9.516;2024-01-06T00:08:49;5.70;99.90
47813;DHT22;34221;45.296;9.516;2024-01-06T00:09:08;5.70;99.90
47813;DHT22;34221;45.296;9.516;2024-01-06T00:09:23;5.70;99.90
47813;DHT22;34221;45.296;9.516;2024-01-06T00:09:38;5.70;99.90
47813;DHT22;34221;45.296;9.516;2024-01-06T00:09:53;5.70;99.90
47813;DHT22;34221;45.296;9.516;2024-01-06T00:10:08;5.70;99.90
47813;DHT22;34221;45.296;9.516;2024-01-06T00:10:23;5.70;99.90
47813;DHT22;34221;45.296;9.516;2024-01-06T00:10:38;5.60;99.90
47813;DHT22;34221;45.296;9.516;2024-01-06T00:10:54;5.70;99.90
47813;DHT22;34221;45.296;9.516;2024-01-06T00:11:10;5.60;99.90
47813;DHT22;34221;45.296;9.516;2024-01-06T00:11:25;5.70;99.90
47813;DHT22;34221;45.296;9.516;2024-01-06T00:11:39;5.60;99.90
47813;DHT22;34221;45.296;9.516;2024-01-06T00:11:54;5.60;99.90
47813;DHT22;34221;45.296;9.516;2024-01-06T00:12:09;5.70;99.90
47813;DHT22;34221;45.296;9.516;2024-01-06T00:12:25;5.70;99.90
47813;DHT22;34221;45.296;9.516;2024-01-06T00:12:39;5.60;99.90
47813;DHT22;34221;45.296;9.516;2024-01-06T00:12:54;5.70;99.90
47813;DHT22;34221;45.296;9.516;2024-01-06T00:13:10;5.70;99.90
47813;DHT22;34221;45.296;9.516;2024-01-06T00:13:25;5.70;99.90
47813;DHT22;34221;45.296;9.516;2024-01-06T00:13:40;5.70;99.90
47813;DHT22;34221;45.296;9.516;2024-01-06T00:13:55;5.70;99.90
47813;DHT22;34221;45.296;9.516;2024-01-06T00:14:10;5.70;99.90
47813;DHT22;34221;45.296;9.516;2024-01-06T00:14:25;5.70;99.90
47813;DHT22;34221;45.296;9.516;2024-01-06T00:14:40;5.70;99.90
47813;DHT22;34221;45.296;9.516;2024-01-06T00:14:58;5.70;99.90
47813;DHT22;34221;45.296;9.516;2024-01-06T00:15:16;5.70;99.90
47813;DHT22;34221;45.296;9.516;2024-01-06T00:15:31;5.60;99.90
47813;DHT22;34221;45.296;9.516;2024-01-06T00:15:46;5.60;99.90
47813;DHT22;34221;45.296;9.516;2024-01-06T00:16:02;5.60;99.90
47813;DHT22;34221;45.296;9.516;2024-01-06T00:16:17;5.60;99.90
47813;DHT22;34221;45.296;9.516;2024-01-06T00:16:33;5.60;99.90
47813;DHT22;34221;45.296;9.516;2024-01-06T00:16:48;5.60;99.90
47813;DHT22;34221;45.296;9.516;2024-01-06T00:17:03;5.60;99.90
47813;DHT22;34221;45.296;9.516;2024-01-06T00:17:18;5.60;99.90
47813;DHT22;34221;45.296;9.516;2024-01-06T00:17:33;5.60;99.90
47813;DHT22;34221;45.296;9.516;2024-01-06T00:17:48;5.60;99.90
47813;DHT22;34221;45.296;9.516;2024-01-06T00:18:03;5.60;99.90
47813;DHT22;34221;45.296;9.516;2024-01-06T00:18:18;5.60;99.90
47813;DHT22;34221;45.296;9.516;2024-01-06T00:18:33;5.60;99.90
47813;DHT22;34221;45.296;9.516;2024-01-06T00:18:48;5.50;99.90
47813;DHT22;34221;45.296;9.516;2024-01-06T00:19:03;5.60;99.90
47813;DHT22;34221;45.296;9.516;2024-01-06T00:19:18;5.60;99.90
47813;DHT22;34221;45.296;9.516;2024-01-06T00:19:33;5.60;99.90
47813;DHT22;34221;45.296;9.516;2024-01-06T00:19:48;5.60;99.90
47813;DHT22;34221;45.296;9.516;2024-01-06T00:20:06;5.50;99.90
47813;DHT22;34221;45.296;9.516;2024-01-06T00:20:21;5.50;99.90
47813;DHT22;34221;45.296;9.516;2024-01-06T00:20:36;5.50;99.90
47813;DHT22;34221;45.296;9.516;2024-01-06T00:20:51;5.50;99.90
47813;DHT22;34221;45.296;9.516;2024-01-06T00:21:08;5.50;99.90
47813;DHT22;34221;45.296;9.516;2024-01-06T00:21:23;5.50;99.90
47813;DHT22;34221;45.296;9.516;2024-01-06T00:21:38;5.50;99.90
47813;DHT22;34221;45.296;9.516;2024-01-06T00:21:53;5.50;99.90
47813;DHT22;34221;45.296;9.516;2024-01-06T00:22:08;5.50;99.90
47813;DHT22;34221;45.296;9.516;2024-01-06T00:22:23;5.50;99.90
47813;DHT22;34221;45.296;9.516;2024-01-06T00:22:38;5.50;99.90
47813;DHT22;34221;45.296;9.516;2024-01-06T00:22:53;5.50;99.90
47813;DHT22;34221;45.296;9.516;2024-01-06T00:23:08;5.50;99.90
47813;DHT22;34221;45.296;9.516;2024-01-06T00:23:23;5.50;99.90
47813;DHT22;34221;45.296;9.516;2024-01-06T00:23:39;5.50;99.90
47813;DHT22;34221;45.296;9.516;2024-01-06T00:23:55;5.50;99.90
47813;DHT22;34221;45.296;9.516;2024-01-06T00:24:12;5.50;99.90
47813;DHT22;34221;45.296;9.516;2024-01-06T00:24:27;5.50;99.90
47813;DHT22;34221;45.296;9.516;2024-01-06T00:24:42;5.50;99.90
47813;DHT22;34221;45.296;9.516;2024-01-06T00:24:57;5.50;99.90
47813;DHT22;34221;45.296;9.516;2024-01-06T00:25:12;5.50;99.90
47813;DHT22;34221;45.296;9.516;2024-01-06T00:25:27;5.50;99.90
47813;DHT22;34221;45.296;9.516;2024-01-06T00:25:42;5.50;99.90
47813;DHT22;34221;45.296;9.516;2024-01-06T00:25:57;5.50;99.90
47813;DHT22;34221;45.296;9.516;2024-01-06T00:26:12;5.50;99.90
47813;DHT22;34221;45.296;9.516;2024-01-06T00:26:27;5.50;99.90
47813;DHT22;34221;45.296;9.516;2024-01-06T00:26:42;5.50;99.90
47813;DHT22;34221;45.296;9.516;2024-01-06T00:26:57;5.50;99.90
47813;DHT22;34221;45.296;9.516;2024-01-06T00:27:12;5.50;99.90
47813;DHT22;34221;45.296;9.516;2024-01-06T00:27:28;5.50;99.90
47813;DHT22;34221;45.296;9.516;2024-01-06T00:27:43;5.40;99.90
47813;DHT22;34221;45.296;9.516;2024-01-06T00:27:58;5.40;99.90
47813;DHT22;34221;45.296;9.516;2024-01-06T00:28:12;5.40;99.90
47813;DHT22;34221;45.296;9.516;2024-01-06T00:28:27;5.40;99.90
47813;DHT22;34221;45.296;9.516;2024-01-06T00:28:42;5.40;99.90
47813;DHT22;34221;45.296;9.516;2024-01-06T00:28:57;5.40;99.90
47813;DHT22;34221;45.296;9.516;2024-01-06T00:29:12;5.40;99.90
47813;DHT22;34221;45.296;9.516;2024-01-06T00:29:27;5.30;99.90
47813;DHT22;34221;45.296;9.516;2024-01-06T00:29:42;5.40;99.90
47813;DHT22;34221;45.296;9.516;2024-01-06T00:29:57;5.40;99.90
47813;DHT22;34221;45.296;9.516;2024-01-06T00:30:12;5.40;99.90
47813;DHT22;34221;45.296;9.516;2024-01-06T00:30:27;5.40;99.90
47813;DHT22;34221;45.296;9.516;2024-01-06T00:30:42;5.40;99.90
47813;DHT22;34221;45.296;9.516;2024-01-06T00:30:57;5.40;99.90
47813;DHT22;34221;45.296;9.516;2024-01-06T00:31:12;5.30;99.90
47813;DHT22;34221;45.296;9.516;2024-01-06T00:31:27;5.30;99.90
47813;DHT22;34221;45.296;9.516;2024-01-06T00:31:42;5.40;99.90
47813;DHT22;34221;45.296;9.516;2024-01-06T00:31:57;5.30;99.90
47813;DHT22;34221;45.296;9.516;2024-01-06T00:32:12;5.30;99.90
47813;DHT22;34221;45.296;9.516;2024-01-06T00:32:27;5.30;99.90
47813;DHT22;34221;45.296;9.516;2024-01-06T00:32:42;5.30;99.90
47813;DHT22;34221;45.296;9.516;2024-01-06T00:32:56;5.30;99.90
47813;DHT22;34221;45.296;9.516;2024-01-06T00:33:12;5.30;99.90
47813;DHT22;34221;45.296;9.516;2024-01-06T00:33:27;5.30;99.90
47813;DHT22;34221;45.296;9.516;2024-01-06T00:33:42;5.30;99.90
47813;DHT22;34221;45.296;9.516;2024-01-06T00:33:57;5.30;99.90
47813;DHT22;34221;45.296;9.516;2024-01-06T00:34:12;5.30;99.90
47813;DHT22;34221;45.296;9.516;2024-01-06T00:34:27;5.30;99.90
47813;DHT22;34221;45.296;9.516;2024-01-06T00:34:42;5.30;99.90
47813;DHT22;34221;45.296;9.516;2024-01-06T00:34:57;5.30;99.90
47813;DHT22;34221;45.296;9.516;2024-01-06T00:35:12;5.30;99.90
47813;DHT22;34221;45.296;9.516;2024-01-06T00:35:27;5.30;99.90
47813;DHT22;34221;45.296;9.516;2024-01-06T00:35:41;5.30;99.90
47813;DHT22;34221;45.296;9.516;2024-01-06T00:35:56;5.30;99.90
47813;DHT22;34221;45.296;9.516;2024-01-06T00:36:11;5.30;99.90
47813;DHT22;34221;45.296;9.516;2024-01-06T00:36:26;5.40;99.90
47813;DHT22;34221;45.296;9.516;2024-01-06T00:36:42;5.40;99.90
47813;DHT22;34221;45.296;9.516;2024-01-06T00:36:57;5.30;99.90
47813;DHT22;34221;45.296;9.516;2024-01-06T00:37:12;5.30;99.90
47813;DHT22;34221;45.296;9.516;2024-01-06T00:37:27;5.30;99.90
47813;DHT22;34221;45.296;9.516;2024-01-06T00:37:41;5.30;99.90
47813;DHT22;34221;45.296;9.516;2024-01-06T00:37:56;5.30;99.90
47813;DHT22;34221;45.296;9.516;2024-01-06T00:38:12;5.30;99.90
47813;DHT22;34221;45.296;9.516;2024-01-06T00:38:26;5.30;99.90
47813;DHT22;34221;45.296;9.516;2024-01-06T00:38:41;5.30;99.90
47813;DHT22;34221;45.296;9.516;2024-01-06T00:38:56;5.30;99.90
47813;DHT22;34221;45.296;9.516;2024-01-06T00:39:11;5.30;99.90
47813;DHT22;34221;45.296;9.516;2024-01-06T00:39:26;5.30;99.90
47813;DHT22;34221;45.296;9.516;2024-01-06T00:39:41;5.30;99.90
47813;DHT22;34221;45.296;9.516;2024-01-06T00:39:56;5.30;99.90
47813;DHT22;34221;45.296;9.516;2024-01-06T00:40:11;5.30;99.90
47813;DHT22;34221;45.296;9.516;2024-01-06T00:40:26;5.30;99.90
47813;DHT22;34221;45.296;9.516;2024-01-06T00:40:41;5.30;99.90
47813;DHT22;34221;45.296;9.516;2024-01-06T00:40:56;5.30;99.90
47813;DHT22;34221;45.296;9.516;2024-01-06T00:41:11;5.30;99.90
47813;DHT22;34221;45.296;9.516;2024-01-06T00:41:26;5.30;99.90
47813;DHT22;34221;45.296;9.516;2024-01-06T00:41:41;5.30;99.90
47813;DHT22;34221;45.296;9.516;2024-01-06T00:41:56;5.30;99.90
47813;DHT22;34221;45.296;9.516;2024-01-06T00:42:11;5.30;99.90
47813;DHT22;34221;45.296;9.516;2024-01-06T00:42:26;5.30;99.90
47813;DHT22;34221;45.296;9.516;2024-01-06T00:42:41;5.30;99.90
47813;DHT22;34221;45.296;9.516;2024-01-06T00:42:56;5.30;99.90
47813;DHT22;34221;45.296;9.516;2024-01-06T00:43:11;5.20;99.90
47813;DHT22;34221;45.296;9.516;2024-01-06T00:43:26;5.30;99.90
47813;DHT22;34221;45.296;9.516;2024-01-06T00:43:40;5.30;99.90
47813;DHT22;34221;45.296;9.516;2024-01-06T00:43:55;5.30;99.90
47813;DHT22;34221;45.296;9.516;2024-01-06T00:44:10;5.30;99.90
47813;DHT22;34221;45.296;9.516;2024-01-06T00:44:25;5.30;99.90
47813;DHT22;34221;45.296;9.516;2024-01-06T00:44:40;5.30;99.90
47813;DHT22;34221;45.296;9.516;2024-01-06T00:44:55;5.30;99.90
47813;DHT22;34221;45.296;9.516;2024-01-06T00:45:10;5.20;99.90
47813;DHT22;34221;45.296;9.516;2024-01-06T00:45:25;5.20;99.90
47813;DHT22;34221;45.296;9.516;2024-01-06T00:45:40;5.20;99.90
47813;DHT22;34221;45.296;9.516;2024-01-06T00:45:55;5.30;99.90
47813;DHT22;34221;45.296;9.516;2024-01-06T00:46:10;5.30;99.90
47813;DHT22;34221;45.296;9.516;2024-01-06T00:46:25;5.20;99.90
47813;DHT22;34221;45.296;9.516;2024-01-06T00:46:40;5.30;99.90
47813;DHT22;34221;45.296;9.516;2024-01-06T00:46:55;5.20;99.90
47813;DHT22;34221;45.296;9.516;2024-01-06T00:47:10;5.30;99.90
47813;DHT22;34221;45.296;9.516;2024-01-06T00:47:24;5.30;99.90
47813;DHT22;34221;45.296;9.516;2024-01-06T00:47:39;5.20;99.90
47813;DHT22;34221;45.296;9.516;2024-01-06T00:47:54;5.30;99.90
47813;DHT22;34221;45.296;9.516;2024-01-06T00:48:09;5.20;99.90
47813;DHT22;34221;45.296;9.516;2024-01-06T00:48:24;5.20;99.90
47813;DHT22;34221;45.296;9.516;2024-01-06T00:48:39;5.20;99.90
47813;DHT22;34221;45.296;9.516;2024-01-06T00:48:54;5.20;99.90
47813;DHT22;34221;45.296;9.516;2024-01-06T00:49:09;5.20;99.90
47813;DHT22;34221;45.296;9.516;2024-01-06T00:49:24;5.10;99.90
47813;DHT22;34221;45.296;9.516;2024-01-06T00:49:39;5.20;99.90
47813;DHT22;34221;45.296;9.516;2024-01-06T00:49:54;5.10;99.90
47813;DHT22;34221;45.296;9.516;2024-01-06T00:50:09;5.20;99.90
47813;DHT22;34221;45.296;9.516;2024-01-06T00:50:24;5.20;99.90
47813;DHT22;34221;45.296;9.516;2024-01-06T00:50:39;5.20;99.90
47813;DHT22;34221;45.296;9.516;2024-01-06T00:50:53;5.20;99.90
47813;DHT22;34221;45.296;9.516;2024-01-06T00:51:08;5.20;99.90
47813;DHT22;34221;45.296;9.516;2024-01-06T00:51:23;5.20;99.90
47813;DHT22;34221;45.296;9.516;2024-01-06T00:51:38;5.20;99.90
47813;DHT22;34221;45.296;9.516;2024-01-06T00:51:53;5.10;99.90
47813;DHT22;34221;45.296;9.516;2024-01-06T00:52:08;5.10;99.90
47813;DHT22;34221;45.296;9.516;2024-01-06T00:52:23;5.10;99.90
47813;DHT22;34221;45.296;9.516;2024-01-06T00:52:38;5.10;99.90
47813;DHT22;34221;45.296;9.516;2024-01-06T00:52:53;5.20;99.90
47813;DHT22;34221;45.296;9.516;2024-01-06T00:53:08;5.20;99.90
47813;DHT22;34221;45.296;9.516;2024-01-06T00:53:23;5.20;99.90
47813;DHT22;34221;45.296;9.516;2024-01-06T00:53:38;5.20;99.90
47813;DHT22;34221;45.296;9.516;2024-01-06T00:53:53;5.20;99.90
47813;DHT22;34221;45.296;9.516;2024-01-06T00:54:08;5.20;99.90
47813;DHT22;34221;45.296;9.516;2024-01-06T00:54:23;5.20;99.90
47813;DHT22;34221;45.296;9.516;2024-01-06T00:54:37;5.20;99.90
47813;DHT22;34221;45.296;9.516;2024-01-06T00:54:52;5.20;99.90
47813;DHT22;34221;45.296;9.516;2024-01-06T00:55:08;5.20;99.90
47813;DHT22;34221;45.296;9.516;2024-01-06T00:55:23;5.20;99.90
47813;DHT22;34221;45.296;9.516;2024-01-06T00:55:38;5.20;99.90
47813;DHT22;34221;45.296;9.516;2024-01-06T00:55:53;5.20;99.90
47813;DHT22;34221;45.296;9.516;2024-01-06T00:56:08;5.20;99.90
47813;DHT22;34221;45.296;9.516;2024-01-06T00:56:23;5.20;99.90
47813;DHT22;34221;45.296;9.516;2024-01-06T00:56:38;5.20;99.90
47813;DHT22;34221;45.296;9.516;2024-01-06T00:56:53;5.20;99.90
47813;DHT22;34221;45.296;9.516;2024-01-06T00:57:08;5.20;99.90
47813;DHT22;34221;45.296;9.516;2024-01-06T00:57:23;5.20;99.90
47813;DHT22;34221;45.296;9.516;2024-01-06T00:57:38;5.20;99.90
47813;DHT22;34221;45.296;9.516;2024-01-06T00:57:53;5.20;99.90
47813;DHT22;34221;45.296;9.516;2024-01-06T00:58:08;5.20;99.90
47813;DHT22;34221;45.296;9.516;2024-01-06T00:58:23;5.20;99.90
47813;DHT22;34221;45.296;9.516;2024-01-06T00:58:38;5.20;99.90
47813;DHT22;34221;45.296;9.516;2024-01-06T00:58:53;5.20;99.90
47813;DHT22;34221;45.296;9.516;2024-01-06T00:59:08;5.20;99.90
47813;DHT22;34221;45.296;9.516;2024-01-06T00:59:24;5.20;99.90
47813;DHT22;34221;45.296;9.516;2024-01-06T00:59:38;5.20;99.90
47813;DHT22;34221;45.296;9.516;2024-01-06T00:59:53;5.20;99.90
47813;DHT22;34221;45.296;9.516;2024-01-06T01:00:09;5.20;99.90
47813;DHT22;34221;45.296;9.516;2024-01-06T01:00:24;5.20;99.90
47813;DHT22;34221;45.296;9.516;2024-01-06T01:00:40;5.10;99.90
47813;DHT22;34221;45.296;9.516;2024-01-06T01:00:54;5.20;99.90
47813;DHT22;34221;45.296;9.516;2024-01-06T01:01:09;5.10;99.90
47813;DHT22;34221;45.296;9.516;2024-01-06T01:01:24;5.20;99.90
47813;DHT22;34221;45.296;9.516;2024-01-06T01:01:39;5.20;99.90
47813;DHT22;34221;45.296;9.516;2024-01-06T01:01:54;5.20;99.90
47813;DHT22;34221;45.296;9.516;2024-01-06T01:02:09;5.20;99.90
47813;DHT22;34221;45.296;9.516;2024-01-06T01:02:24;5.20;99.90
47813;DHT22;34221;45.296;9.516;2024-01-06T01:02:39;5.10;99.90
47813;DHT22;34221;45.296;9.516;2024-01-06T01:02:54;5.20;99.90
47813;DHT22;34221;45.296;9.516;2024-01-06T01:03:09;5.20;99.90
47813;DHT22;34221;45.296;9.516;2024-01-06T01:03:24;5.20;99.90
47813;DHT22;34221;45.296;9.516;2024-01-06T01:03:39;5.10;99.90
47813;DHT22;34221;45.296;9.516;2024-01-06T01:03:54;5.10;99.90
47813;DHT22;34221;45.296;9.516;2024-01-06T01:04:08;5.20;99.90
47813;DHT22;34221;45.296;9.516;2024-01-06T01:04:23;5.10;99.90
47813;DHT22;34221;45.296;9.516;2024-01-06T01:04:38;5.10;99.90
47813;DHT22;34221;45.296;9.516;2024-01-06T01:04:53;5.20;99.90
47813;DHT22;34221;45.296;9.516;2024-01-06T01:05:08;5.20;99.90
47813;DHT22;34221;45.296;9.516;2024-01-06T01:05:23;5.20;99.90
47813;DHT22;34221;45.296;9.516;2024-01-06T01:05:38;5.10;99.90
47813;DHT22;34221;45.296;9.516;2024-01-06T01:05:53;5.20;99.90
47813;DHT22;34221;45.296;9.516;2024-01-06T01:06:08;5.20;99.90
47813;DHT22;34221;45.296;9.516;2024-01-06T01:06:23;5.20;99.90
47813;DHT22;34221;45.296;9.516;2024-01-06T01:06:38;5.20;99.90
47813;DHT22;34221;45.296;9.516;2024-01-06T01:06:53;5.20;99.90
47813;DHT22;34221;45.296;9.516;2024-01-06T01:07:08;5.20;99.90
47813;DHT22;34221;45.296;9.516;2024-01-06T01:07:24;5.20;99.90
47813;DHT22;34221;45.296;9.516;2024-01-06T01:07:39;5.20;99.90
47813;DHT22;34221;45.296;9.516;2024-01-06T01:07:54;5.20;99.90
47813;DHT22;34221;45.296;9.516;2024-01-06T01:08:08;5.20;99.90
47813;DHT22;34221;45.296;9.516;2024-01-06T01:08:23;5.20;99.90
47813;DHT22;34221;45.296;9.516;2024-01-06T01:08:38;5.20;99.90
47813;DHT22;34221;45.296;9.516;2024-01-06T01:08:53;5.20;99.90
47813;DHT22;34221;45.296;9.516;2024-01-06T01:09:08;5.20;99.90
47813;DHT22;34221;45.296;9.516;2024-01-06T01:09:25;5.20;99.90
47813;DHT22;34221;45.296;9.516;2024-01-06T01:09:39;5.20;99.90
47813;DHT22;34221;45.296;9.516;2024-01-06T01:09:54;5.10;99.90
47813;DHT22;34221;45.296;9.516;2024-01-06T01:10:11;5.10;99.90
47813;DHT22;34221;45.296;9.516;2024-01-06T01:10:26;5.10;99.90
47813;DHT22;34221;45.296;9.516;2024-01-06T01:10:40;5.20;99.90
47813;DHT22;34221;45.296;9.516;2024-01-06T01:10:56;5.10;99.90
47813;DHT22;34221;45.296;9.516;2024-01-06T01:11:11;5.10;99.90
47813;DHT22;34221;45.296;9.516;2024-01-06T01:11:26;5.10;99.90
47813;DHT22;34221;45.296;9.516;2024-01-06T01:11:41;5.10;99.90
47813;DHT22;34221;45.296;9.516;2024-01-06T01:11:56;5.10;99.90
47813;DHT22;34221;45.296;9.516;2024-01-06T01:12:11;5.10;99.90
47813;DHT22;34221;45.296;9.516;2024-01-06T01:12:26;5.10;99.90
47813;DHT22;34221;45.296;9.516;2024-01-06T01:12:41;5.20;99.90
47813;DHT22;34221;45.296;9.516;2024-01-06T01:12:56;5.10;99.90
47813;DHT22;34221;45.296;9.516;2024-01-06T01:13:11;5.10;99.90
47813;DHT22;34221;45.296;9.516;2024-01-06T01:13:26;5.10;99.90
47813;DHT22;34221;45.296;9.516;2024-01-06T01:13:41;5.10;99.90
47813;DHT22;34221;45.296;9.516;2024-01-06T01:13:56;5.10;99.90
47813;DHT22;34221;45.296;9.516;2024-01-06T01:14:11;5.10;99.90
47813;DHT22;34221;45.296;9.516;2024-01-06T01:14:26;5.10;99.90
47813;DHT22;34221;45.296;9.516;2024-01-06T01:14:41;5.10;99.90
47813;DHT22;34221;45.296;9.516;2024-01-06T01:14:56;5.10;99.90
47813;DHT22;34221;45.296;9.516;2024-01-06T01:15:16;5.10;99.90
47813;DHT22;34221;45.296;9.516;2024-01-06T01:15:31;5.10;99.90
47813;DHT22;34221;45.296;9.516;2024-01-06T01:15:46;5.10;99.90
47813;DHT22;34221;45.296;9.516;2024-01-06T01:16:01;5.10;99.90
47813;DHT22;34221;45.296;9.516;2024-01-06T01:16:17;5.10;99.90
47813;DHT22;34221;45.296;9.516;2024-01-06T01:16:32;5.10;99.90
47813;DHT22;34221;45.296;9.516;2024-01-06T01:16:47;5.10;99.90
47813;DHT22;34221;45.296;9.516;2024-01-06T01:17:02;5.10;99.90
47813;DHT22;34221;45.296;9.516;2024-01-06T01:17:17;5.10;99.90
47813;DHT22;34221;45.296;9.516;2024-01-06T01:17:32;5.10;99.90
47813;DHT22;34221;45.296;9.516;2024-01-06T01:17:47;5.10;99.90
47813;DHT22;34221;45.296;9.516;2024-01-06T01:18:02;5.10;99.90
47813;DHT22;34221;45.296;9.516;2024-01-06T01:18:17;5.10;99.90
47813;DHT22;34221;45.296;9.516;2024-01-06T01:18:32;5.10;99.90
47813;DHT22;34221;45.296;9.516;2024-01-06T01:18:47;5.10;99.90
47813;DHT22;34221;45.296;9.516;2024-01-06T01:19:02;5.10;99.90
47813;DHT22;34221;45.296;9.516;2024-01-06T01:19:17;5.10;99.90
47813;DHT22;34221;45.296;9.516;2024-01-06T01:19:32;5.10;99.90
47813;DHT22;34221;45.296;9.516;2024-01-06T01:19:47;5.10;99.90
47813;DHT22;34221;45.296;9.516;2024-01-06T01:20:02;5.10;99.90
47813;DHT22;34221;45.296;9.516;2024-01-06T01:20:17;5.10;99.90
47813;DHT22;34221;45.296;9.516;2024-01-06T01:20:32;5.10;99.90
47813;DHT22;34221;45.296;9.516;2024-01-06T01:20:47;5.10;99.90
47813;DHT22;34221;45.296;9.516;2024-01-06T01:21:02;5.10;99.90
47813;DHT22;34221;45.296;9.516;2024-01-06T01:21:17;5.10;99.90
47813;DHT22;34221;45.296;9.516;2024-01-06T01:21:32;5.10;99.90
47813;DHT22;34221;45.296;9.516;2024-01-06T01:21:47;5.10;99.90
47813;DHT22;34221;45.296;9.516;2024-01-06T01:22:02;5.10;99.90
47813;DHT22;34221;45.296;9.516;2024-01-06T01:22:17;5.10;99.90
47813;DHT22;34221;45.296;9.516;2024-01-06T01:22:32;5.10;99.90
47813;DHT22;34221;45.296;9.516;2024-01-06T01:22:47;5.10;99.90
47813;DHT22;34221;45.296;9.516;2024-01-06T01:23:02;5.10;99.90
47813;DHT22;34221;45.296;9.516;2024-01-06T01:23:17;5.10;99.90
47813;DHT22;34221;45.296;9.516;2024-01-06T01:23:32;5.20;99.90
47813;DHT22;34221;45.296;9.516;2024-01-06T01:23:47;5.20;99.90
47813;DHT22;34221;45.296;9.516;2024-01-06T01:24:02;5.20;99.90
47813;DHT22;34221;45.296;9.516;2024-01-06T01:24:17;5.20;99.90
47813;DHT22;34221;45.296;9.516;2024-01-06T01:24:32;5.20;99.90
47813;DHT22;34221;45.296;9.516;2024-01-06T01:24:47;5.20;99.90
47813;DHT22;34221;45.296;9.516;2024-01-06T01:25:02;5.20;99.90
47813;DHT22;34221;45.296;9.516;2024-01-06T01:25:21;5.20;99.90
47813;DHT22;34221;45.296;9.516;2024-01-06T01:25:36;5.20;99.90
47813;DHT22;34221;45.296;9.516;2024-01-06T01:25:51;5.20;99.90
47813;DHT22;34221;45.296;9.516;2024-01-06T01:26:06;5.20;99.90
47813;DHT22;34221;45.296;9.516;2024-01-06T01:26:21;5.10;99.90
47813;DHT22;34221;45.296;9.516;2024-01-06T01:26:36;5.10;99.90
47813;DHT22;34221;45.296;9.516;2024-01-06T01:26:51;5.10;99.90
47813;DHT22;34221;45.296;9.516;2024-01-06T01:27:06;5.10;99.90
47813;DHT22;34221;45.296;9.516;2024-01-06T01:27:21;5.10;99.90
47813;DHT22;34221;45.296;9.516;2024-01-06T01:27:36;5.20;99.90
47813;DHT22;34221;45.296;9.516;2024-01-06T01:27:50;5.10;99.90
47813;DHT22;34221;45.296;9.516;2024-01-06T01:28:05;5.20;99.90
47813;DHT22;34221;45.296;9.516;2024-01-06T01:28:20;5.20;99.90
47813;DHT22;34221;45.296;9.516;2024-01-06T01:28:35;5.20;99.90
47813;DHT22;34221;45.296;9.516;2024-01-06T01:28:50;5.20;99.90
47813;DHT22;34221;45.296;9.516;2024-01-06T01:29:05;5.20;99.90
47813;DHT22;34221;45.296;9.516;2024-01-06T01:29:20;5.20;99.90
47813;DHT22;34221;45.296;9.516;2024-01-06T01:29:35;5.20;99.90
47813;DHT22;34221;45.296;9.516;2024-01-06T01:29:50;5.20;99.90
47813;DHT22;34221;45.296;9.516;2024-01-06T01:30:07;5.20;99.90
47813;DHT22;34221;45.296;9.516;2024-01-06T01:30:22;5.20;99.90
47813;DHT22;34221;45.296;9.516;2024-01-06T01:30:37;5.20;99.90
47813;DHT22;34221;45.296;9.516;2024-01-06T01:30:52;5.20;99.90
47813;DHT22;34221;45.296;9.516;2024-01-06T01:31:07;5.10;99.90
47813;DHT22;34221;45.296;9.516;2024-01-06T01:31:22;5.10;99.90
47813;DHT22;34221;45.296;9.516;2024-01-06T01:31:37;5.10;99.90
47813;DHT22;34221;45.296;9.516;2024-01-06T01:31:52;5.10;99.90
47813;DHT22;34221;45.296;9.516;2024-01-06T01:32:07;5.10;99.90
47813;DHT22;34221;45.296;9.516;2024-01-06T01:32:22;5.20;99.90
47813;DHT22;34221;45.296;9.516;2024-01-06T01:32:37;5.10;99.90
47813;DHT22;34221;45.296;9.516;2024-01-06T01:32:52;5.10;99.90
47813;DHT22;34221;45.296;9.516;2024-01-06T01:33:07;5.10;99.90
47813;DHT22;34221;45.296;9.516;2024-01-06T01:33:22;5.10;99.90
47813;DHT22;34221;45.296;9.516;2024-01-06T01:33:37;5.10;99.90
47813;DHT22;34221;45.296;9.516;2024-01-06T01:33:52;5.10;99.90
47813;DHT22;34221;45.296;9.516;2024-01-06T01:34:07;5.10;99.90
47813;DHT22;34221;45.296;9.516;2024-01-06T01:34:22;5.10;99.90
47813;DHT22;34221;45.296;9.516;2024-01-06T01:34:37;5.10;99.90
47813;DHT22;34221;45.296;9.516;2024-01-06T01:34:52;5.10;99.90
47813;DHT22;34221;45.296;9.516;2024-01-06T01:35:07;5.10;99.90
47813;DHT22;34221;45.296;9.516;2024-01-06T01:35:22;5.10;99.90
47813;DHT22;34221;45.296;9.516;2024-01-06T01:35:37;5.10;99.90
47813;DHT22;34221;45.296;9.516;2024-01-06T01:35:52;5.10;99.90
47813;DHT22;34221;45.296;9.516;2024-01-06T01:36:07;5.10;99.90
47813;DHT22;34221;45.296;9.516;2024-01-06T01:36:22;5.10;99.90
47813;DHT22;34221;45.296;9.516;2024-01-06T01:36:37;5.10;99.90
47813;DHT22;34221;45.296;9.516;2024-01-06T01:36:52;5.10;99.90